Briefing drone pour Rieux-minervois

Rechercher une autre localisation

Conditions de vol :


Nous sommes le : Samedi 13 avril 2024
Il est 19:06 UTC (21:06 LT)

Lever de soleil : 04:42 UTC (06:42 LT)
Coucher de soleil : 18:57 UTC (20:57 LT)

Météo

L'essentiel des conditions de vol

VIGILANCE MÉTÉO FRANCE - Aude (11)
Pas de vigilances particulieres
METAR de LFMK
LFMK 131900Z AUTO 08010KT CAVOK 22/09 Q1025

Date d'émission: 13/04/2024
Heure d'émission: 19:00 UTC
Vent: 080° pour 10 KT (19 km/h)
Visibilité horizontale: > 10 km
Plafond : Plafond et visibilité OK (CAVOK)
Température: 22 °C
Point de rosée: 9 °C
Humidité: 43%
Pression (QNH): 1025 hPa
TAF de LFMK
LFMK 131800Z 1318/1415 CNL

Conditions prévues :

Heure d'émission : Bulletin éffectué le 13 à 18:00 UTC
Prévision : Valide du 13 a 18:00 UTC au 14 a 15:00 UTC
Nuages : à 0ft (0 m)
WEBCAM POUR RIEUX-MINERVOIS

Réglementation

Voler en sécurité

CARTES AERONAUTIQUE 1/500.000
CARTE AZBA (Reseau basse altitude)
CARTES VAC (LFMK)
SUP AIP




Chargement des AIP...
NOTAM (RIEUX-MINERVOIS + Terrain à proximité / FIR )




Chargement des NOTAMS...
CONTACT PREFECTURE 11
Aude (11) : [email protected]


Avertissement : Les données mises à disposition sont indicatives. Oxygène Drone ne pourra être tenu responsable de dégâts causés aux biens et aux personnes.